Time;durP1;ratioP1;P1;durP2;ratioP2;P2;SDS_P1;SDS_P2;PMS_P1;PMS_P2;Temp;Humidity;BMP_temperature;BMP_pressure;BME280_temperature;BME280_humidity;BME280_pressure;Samples;Min_cycle;Max_cycle;Signal;HPM_P1;HPM_P2
2023/06/20 00:04:35;;;;;;;26.00;20.90;;;;;;;18.64;60.28;98603.96;436404;1247;99215;-41
2023/06/20 00:24:50;;;;;;;21.90;18.50;;;;;;;18.23;61.55;98593.91;436350;1253;108538;-41
2023/06/20 00:45:04;;;;;;;24.40;19.50;;;;;;;17.95;62.28;98592.89;436203;1253;106977;-42
2023/06/20 00:55:09;;;;;;;26.40;22.20;;;;;;;17.70;62.92;98591.96;436386;1247;99419;-42
2023/06/20 01:05:16;;;;;;;29.80;23.00;;;;;;;17.54;63.62;98594.51;436246;1255;111512;-42
2023/06/20 01:15:30;;;;;;;29.60;21.40;;;;;;;17.47;63.93;98600.41;436558;1248;108274;-41
2023/06/20 01:25:43;;;;;;;30.70;23.20;;;;;;;17.37;64.44;98602.61;435502;1251;99215;-43
2023/06/20 01:35:50;;;;;;;33.80;26.50;;;;;;;17.24;64.94;98597.42;435486;1251;108289;-42
2023/06/20 01:46:00;;;;;;;30.20;22.70;;;;;;;17.16;65.38;98595.36;435377;1253;99244;-43
2023/06/20 01:56:05;;;;;;;27.00;20.20;;;;;;;17.22;65.67;98600.84;435482;1253;111542;-43
2023/06/20 02:06:14;;;;;;;29.10;21.50;;;;;;;17.12;65.96;98594.90;435463;1255;108085;-43
2023/06/20 02:26:31;;;;;;;26.60;22.10;;;;;;;16.85;66.73;98602.04;436463;1248;107820;-44
2023/06/20 02:36:39;;;;;;;29.00;21.40;;;;;;;16.83;67.18;98597.40;436298;1254;98011;-44
2023/06/20 02:46:45;;;;;;;28.10;21.00;;;;;;;16.88;67.20;98593.86;436157;1248;111169;-43
2023/06/20 02:56:51;;;;;;;27.10;21.80;;;;;;;16.91;67.11;98591.45;436330;1251;107559;-43
2023/06/20 03:07:01;;;;;;;28.80;22.60;;;;;;;16.90;67.25;98587.92;436188;1248;97992;-42
2023/06/20 03:17:09;;;;;;;23.50;20.30;;;;;;;17.40;67.22;98585.89;436242;1248;107527;-44
2023/06/20 03:27:16;;;;;;;26.30;20.90;;;;;;;18.73;66.61;98582.21;435809;1253;399896;-43
2023/06/20 03:37:23;;;;;;;25.40;21.20;;;;;;;19.80;65.33;98579.42;436305;1262;111952;-43
2023/06/20 03:47:30;;;;;;;27.80;21.70;;;;;;;20.61;64.27;98588.44;436244;1252;107098;-44
2023/06/20 03:57:37;;;;;;;24.60;21.50;;;;;;;21.58;63.16;98590.02;436238;1248;99204;-44
2023/06/20 04:07:44;;;;;;;24.90;18.90;;;;;;;22.60;61.65;98598.70;436338;1254;108343;-43
2023/06/20 04:17:51;;;;;;;20.50;17.40;;;;;;;23.43;60.05;98601.80;436227;1253;99240;-43
2023/06/20 04:27:59;;;;;;;21.90;17.30;;;;;;;23.88;58.48;98606.09;436234;1254;112071;-42
2023/06/20 04:38:06;;;;;;;21.90;17.40;;;;;;;24.67;57.44;98608.14;436181;1248;108272;-42
2023/06/20 04:48:13;;;;;;;22.00;17.70;;;;;;;25.35;56.15;98617.79;436283;1253;99208;-44
2023/06/20 04:58:20;;;;;;;25.00;16.60;;;;;;;25.71;54.62;98623.24;436366;1248;109626;-42
2023/06/20 05:08:27;;;;;;;19.20;15.80;;;;;;;25.53;53.01;98624.48;436237;1248;99697;-42
2023/06/20 05:18:35;;;;;;;17.80;15.50;;;;;;;25.80;52.99;98621.80;436316;1248;112413;-42
2023/06/20 05:28:43;;;;;;;18.50;14.80;;;;;;;25.79;51.46;98623.88;436118;1248;107290;-43
2023/06/20 05:38:50;;;;;;;18.30;15.10;;;;;;;26.05;51.82;98625.96;436259;1250;99287;-43
2023/06/20 05:59:04;;;;;;;25.80;14.10;;;;;;;27.18;50.46;98628.83;436361;1253;99180;-43
2023/06/20 06:09:11;;;;;;;19.80;15.10;;;;;;;28.00;49.66;98633.52;436303;1248;111614;-42
2023/06/20 06:29:26;;;;;;;15.60;13.60;;;;;;;28.59;47.02;98625.23;436372;1252;99216;-42
2023/06/20 06:49:40;;;;;;;18.80;12.10;;;;;;;29.34;45.68;98635.31;436224;1253;98490;-43
2023/06/20 06:59:48;;;;;;;25.70;13.30;;;;;;;29.40;44.96;98639.73;436373;1248;111722;-43
2023/06/20 07:09:55;;;;;;;22.60;11.30;;;;;;;29.90;44.73;98646.70;436220;1248;108167;-43
2023/06/20 07:30:09;;;;;;;12.60;9.40;;;;;;;30.77;42.26;98658.89;436303;1253;108138;-43
2023/06/20 07:40:17;;;;;;;11.00;8.20;;;;;;;31.87;41.70;98657.32;436633;1253;97938;-44
2023/06/20 07:50:24;;;;;;;8.30;7.50;;;;;;;32.11;40.04;98658.35;436452;1248;103718;-43
2023/06/20 08:00:31;;;;;;;9.50;7.10;;;;;;;30.56;38.25;98667.73;436391;1253;100124;-42
2023/06/20 08:10:38;;;;;;;13.20;7.80;;;;;;;30.58;39.48;98672.18;436487;1248;99192;-42
2023/06/20 08:20:47;;;;;;;11.50;8.50;;;;;;;31.48;38.86;98670.48;436227;1254;100009;-45
2023/06/20 08:30:55;;;;;;;17.40;8.70;;;;;;;31.90;38.42;98669.02;436331;1249;99214;-43
2023/06/20 08:51:08;;;;;;;8.70;7.30;;;;;;;32.04;36.91;98668.11;436284;1255;107071;-44
2023/06/20 09:01:15;;;;;;;8.00;7.30;;;;;;;31.62;36.40;98662.05;436609;1253;98313;-43
2023/06/20 09:11:27;;;;;;;14.30;9.00;;;;;;;31.96;36.24;98662.95;436389;1253;101307;-45
2023/06/20 09:21:36;;;;;;;10.60;8.90;;;;;;;31.51;35.35;98653.86;436435;1252;97976;-43
2023/06/20 09:31:42;;;;;;;9.90;9.00;;;;;;;31.52;36.03;98650.50;436445;1252;111351;-43
2023/06/20 09:41:52;;;;;;;9.10;8.20;;;;;;;31.66;35.75;98645.86;436475;1253;99451;-43
2023/06/20 09:52:04;;;;;;;9.60;8.30;;;;;;;32.10;35.66;98644.98;436445;1248;99107;-46
2023/06/20 10:02:13;;;;;;;7.90;7.00;;;;;;;32.36;35.14;98646.48;436190;1253;99901;-42
2023/06/20 10:12:21;;;;;;;8.90;8.10;;;;;;;32.64;34.40;98636.86;436272;1253;99202;-43
2023/06/20 10:43:18;;;;;;;9.90;9.00;;;;;;;32.53;33.38;98615.95;436553;1248;99337;-44
2023/06/20 10:53:26;;;;;;;9.20;7.60;;;;;;;32.40;33.25;98611.13;436501;1249;99382;-43
2023/06/20 11:03:35;;;;;;;9.60;8.60;;;;;;;32.16;32.46;98611.84;436365;1248;101444;-43
2023/06/20 11:23:46;;;;;;;10.40;9.00;;;;;;;32.63;33.36;98595.69;436614;1247;100190;-43
2023/06/20 11:44:24;;;;;;;10.30;8.80;;;;;;;32.41;32.50;98574.69;436322;1253;100349;-43
2023/06/20 11:54:46;;;;;;;12.80;10.00;;;;;;;32.24;32.52;98567.16;436163;1262;98588;-43
2023/06/20 12:15:03;;;;;;;12.00;10.10;;;;;;;31.85;32.44;98555.90;436326;1252;100317;-43
2023/06/20 12:25:11;;;;;;;10.20;9.40;;;;;;;31.87;32.48;98548.05;436232;1252;99231;-43
2023/06/20 12:35:17;;;;;;;12.00;9.70;;;;;;;32.02;32.35;98545.27;436263;1253;100778;-41
2023/06/20 12:45:23;;;;;;;11.10;10.10;;;;;;;32.16;32.38;98542.30;436279;1250;99240;-42
2023/06/20 12:55:31;;;;;;;13.00;10.10;;;;;;;32.38;32.44;98534.02;436377;1253;104445;-44
2023/06/20 13:05:38;;;;;;;11.70;9.90;;;;;;;32.48;32.83;98533.48;436420;1253;100115;-43
2023/06/20 13:15:45;;;;;;;13.10;9.80;;;;;;;32.63;32.68;98535.33;436353;1251;99035;-41
2023/06/20 13:25:53;;;;;;;10.90;9.80;;;;;;;32.64;32.46;98532.60;436465;1253;100164;-43
2023/06/20 13:36:01;;;;;;;31.50;10.90;;;;;;;32.51;32.21;98523.88;436413;1253;99232;-43
2023/06/20 13:46:07;;;;;;;12.20;9.40;;;;;;;32.53;32.22;98520.61;436462;1248;103531;-42
2023/06/20 13:56:14;;;;;;;10.90;9.10;;;;;;;32.40;31.86;98519.00;436317;1253;100781;-42
2023/06/20 14:06:21;;;;;;;12.00;9.70;;;;;;;31.65;31.70;98523.14;436257;1251;98020;-42
2023/06/20 14:16:28;;;;;;;10.90;9.80;;;;;;;31.28;32.36;98523.98;436273;1253;109555;-43
2023/06/20 14:26:36;;;;;;;13.80;10.30;;;;;;;30.80;32.34;98522.00;436402;1251;99199;-41
2023/06/20 14:36:40;;;;;;;13.60;10.00;;;;;;;30.61;33.34;98518.81;436395;1253;111400;-41
2023/06/20 14:46:48;;;;;;;10.50;9.30;;;;;;;30.66;33.51;98511.17;436375;1248;109674;-43
2023/06/20 15:07:01;;;;;;;11.20;9.90;;;;;;;30.63;33.67;98499.91;436285;1248;108022;-41
2023/06/20 15:27:12;;;;;;;13.70;11.80;;;;;;;30.47;34.72;98491.73;436148;1248;312207;-42
2023/06/20 15:37:19;;;;;;;10.80;9.80;;;;;;;30.28;34.91;98493.20;436366;1252;108408;-42
2023/06/20 15:47:26;;;;;;;10.80;9.70;;;;;;;30.10;34.87;98497.09;436418;1251;99252;-43
2023/06/20 15:57:33;;;;;;;11.50;10.30;;;;;;;29.91;35.32;98492.28;436312;1253;108764;-42
2023/06/20 16:07:40;;;;;;;10.90;9.40;;;;;;;29.87;35.95;98485.36;436247;1253;98819;-42
2023/06/20 16:27:55;;;;;;;11.50;10.00;;;;;;;29.83;36.63;98490.90;436355;1251;108740;-41
2023/06/20 16:38:02;;;;;;;10.90;10.00;;;;;;;29.61;37.43;98485.95;436375;1253;99215;-41
2023/06/20 16:48:10;;;;;;;11.10;9.70;;;;;;;29.42;37.58;98494.39;436260;1253;107278;-42
2023/06/20 17:28:36;;;;;;;12.90;11.50;;;;;;;28.54;39.93;98487.57;436379;1254;99330;-41
2023/06/20 17:38:40;;;;;;;;;;;;;;;28.27;40.23;98492.30;436276;1252;110631;-41
2023/06/20 17:48:46;;;;;;;11.90;10.20;;;;;;;28.05;40.45;98487.15;436275;1248;99237;-42
2023/06/20 17:58:53;;;;;;;13.30;11.20;;;;;;;27.88;40.67;98485.45;436351;1254;110922;-42
2023/06/20 18:09:00;;;;;;;13.10;11.40;;;;;;;27.72;41.10;98485.39;436287;1254;108435;-41
2023/06/20 18:19:07;;;;;;;14.50;13.10;;;;;;;27.51;41.67;98485.80;436347;1253;99263;-40
2023/06/20 18:29:14;;;;;;;12.70;11.60;;;;;;;27.29;41.93;98487.09;436087;1261;109391;-42
2023/06/20 18:39:21;;;;;;;13.00;11.80;;;;;;;27.12;42.37;98497.59;436289;1250;99324;-42
2023/06/20 18:49:26;;;;;;;14.60;11.90;;;;;;;26.91;42.73;98501.34;436471;1248;111845;-42
2023/06/20 19:09:38;;;;;;;15.10;13.50;;;;;;;26.37;43.98;98514.30;436334;1253;99295;-41
2023/06/20 19:19:46;;;;;;;13.30;11.90;;;;;;;26.17;44.57;98522.19;436339;1253;107656;-42
2023/06/20 19:29:53;;;;;;;17.20;13.60;;;;;;;26.00;45.12;98526.16;436353;1253;99289;-42
2023/06/20 19:40:01;;;;;;;13.50;12.20;;;;;;;25.78;45.63;98531.58;436450;1248;113666;-41
2023/06/20 19:50:12;;;;;;;15.40;12.60;;;;;;;25.57;46.05;98533.86;436432;1248;108387;-40
2023/06/20 20:00:20;;;;;;;14.80;12.50;;;;;;;25.37;46.44;98537.00;436501;1248;98852;-43
2023/06/20 20:10:28;;;;;;;17.00;14.20;;;;;;;25.17;47.02;98549.45;436321;1251;108073;-41
2023/06/20 20:20:35;;;;;;;15.50;14.00;;;;;;;24.94;47.11;98539.10;436280;1248;99311;-42
2023/06/20 20:30:42;;;;;;;19.60;14.50;;;;;;;24.73;47.88;98534.77;436284;1252;112182;-42
2023/06/20 20:40:46;;;;;;;16.10;14.00;;;;;;;24.57;48.52;98537.13;436284;1247;108118;-42
2023/06/20 21:00:59;;;;;;;17.70;14.70;;;;;;;24.15;49.50;98535.88;436345;1253;108607;-41
2023/06/20 21:21:12;;;;;;;18.30;16.40;;;;;;;23.82;50.59;98542.36;436376;1253;112377;-42
2023/06/20 21:31:18;;;;;;;17.70;15.80;;;;;;;23.63;51.23;98541.16;436185;1248;107639;-42
2023/06/20 21:41:23;;;;;;;18.60;16.70;;;;;;;23.45;51.94;98541.69;436208;1248;99215;-42
2023/06/20 21:51:31;;;;;;;25.00;18.40;;;;;;;23.29;52.76;98530.48;436109;1253;107377;-42
2023/06/20 22:01:38;;;;;;;21.90;18.60;;;;;;;23.22;53.16;98531.56;436338;1253;100335;-41
2023/06/20 22:11:45;;;;;;;20.70;15.80;;;;;;;23.14;53.47;98524.62;436392;1253;111659;-41
2023/06/20 22:21:52;;;;;;;22.40;17.90;;;;;;;23.14;53.50;98529.91;436259;1254;107892;-41
2023/06/20 22:31:59;;;;;;;18.80;16.90;;;;;;;23.11;53.49;98536.36;436310;1251;99244;-42
2023/06/20 22:42:07;;;;;;;20.90;18.00;;;;;;;23.00;53.48;98547.15;436281;1254;107849;-41
2023/06/20 22:52:15;;;;;;;20.30;18.20;;;;;;;22.72;54.24;98549.08;436288;1248;99282;-41
2023/06/20 23:02:23;;;;;;;23.60;19.90;;;;;;;22.57;54.56;98556.44;436299;1253;112111;-41
2023/06/20 23:12:31;;;;;;;20.00;18.10;;;;;;;22.38;55.28;98545.23;436458;1254;107790;-41
2023/06/20 23:22:39;;;;;;;21.70;19.50;;;;;;;22.18;55.74;98534.38;436359;1248;99270;-42
2023/06/20 23:32:47;;;;;;;24.60;20.10;;;;;;;21.96;56.47;98523.58;436220;1252;109370;-41
2023/06/20 23:42:55;;;;;;;27.80;21.60;;;;;;;21.77;56.78;98512.70;436279;1248;97984;-42
2023/06/20 23:53:03;;;;;;;19.90;17.40;;;;;;;21.64;56.95;98501.10;436386;1261;111203;-41
